Time,TemperatureF,DewpointF,PressureIn,WindDirection,WindDirectionDegrees,WindSpeedMPH,WindSpeedGustMPH,Humidity,HourlyPrecipIn,Conditions,Clouds,dailyrainin,SoftwareType,DateUTC
2013-04-02 00:04:00,31.3,8.6,30.30,North,0,0.0,0.0,38,0.00,,---,0.00,VWS V13.01,2013-04-02 05:04:00,
2013-04-02 00:10:00,31.3,8.6,30.30,North,0,0.0,0.0,38,0.00,,---,0.00,VWS V13.01,2013-04-02 05:10:00,
2013-04-02 00:15:00,31.3,8.6,30.30,North,0,0.0,0.0,38,0.00,,---,0.00,VWS V13.01,2013-04-02 05:15:00,
2013-04-02 00:20:00,31.1,8.5,30.30,North,0,0.0,0.0,38,0.00,,---,0.00,VWS V13.01,2013-04-02 05:20:00,
2013-04-02 00:26:00,30.9,8.3,30.30,North,0,0.0,0.0,38,0.00,,---,0.00,VWS V13.01,2013-04-02 05:26:00,
2013-04-02 00:31:00,30.9,8.3,30.30,North,0,0.0,0.0,38,0.00,,---,0.00,VWS V13.01,2013-04-02 05:31:00,
2013-04-02 00:37:00,30.9,8.3,30.30,North,0,0.0,0.0,38,0.00,,---,0.00,VWS V13.01,2013-04-02 05:37:00,
2013-04-02 00:43:00,30.9,8.3,30.30,North,0,0.0,0.0,38,0.00,,---,0.00,VWS V13.01,2013-04-02 05:43:00,
2013-04-02 00:49:00,30.9,8.3,30.30,North,0,0.0,0.0,38,0.00,,---,0.00,VWS V13.01,2013-04-02 05:49:00,
2013-04-02 00:55:00,30.4,7.8,30.30,North,0,0.0,0.0,38,0.00,,---,0.00,VWS V13.01,2013-04-02 05:55:00,
2013-04-02 01:00:00,30.4,7.8,30.30,North,0,0.0,0.0,38,0.00,,---,0.00,VWS V13.01,2013-04-02 06:00:00,
2013-04-02 01:05:00,30.2,8.2,30.30,North,0,0.0,0.0,39,0.00,,---,0.00,VWS V13.01,2013-04-02 06:05:00,
2013-04-02 01:10:00,30.2,8.2,30.30,North,0,0.0,0.0,39,0.00,,---,0.00,VWS V13.01,2013-04-02 06:10:00,
2013-04-02 01:15:00,30.2,8.2,30.30,North,0,0.0,0.0,39,0.00,,---,0.00,VWS V13.01,2013-04-02 06:15:00,
2013-04-02 01:21:00,30.0,8.1,30.30,North,0,0.0,0.0,39,0.00,,---,0.00,VWS V13.01,2013-04-02 06:21:00,
2013-04-02 01:26:00,30.0,8.1,30.30,North,0,0.0,0.0,39,0.00,,---,0.00,VWS V13.01,2013-04-02 06:26:00,
2013-04-02 01:32:00,29.8,7.9,30.30,North,0,0.0,0.0,39,0.00,,---,0.00,VWS V13.01,2013-04-02 06:32:00,
2013-04-02 01:37:00,29.8,7.9,30.30,North,0,0.0,0.0,39,0.00,,---,0.00,VWS V13.01,2013-04-02 06:37:00,
2013-04-02 01:42:00,29.7,7.2,30.30,North,0,0.0,0.0,38,0.00,,---,0.00,VWS V13.01,2013-04-02 06:42:00,
2013-04-02 01:48:00,29.7,7.2,30.30,North,0,0.0,0.0,38,0.00,,---,0.00,VWS V13.01,2013-04-02 06:48:00,
2013-04-02 01:53:00,29.7,7.2,30.30,North,0,0.0,0.0,38,0.00,,---,0.00,VWS V13.01,2013-04-02 06:53:00,
2013-04-02 01:58:00,29.7,7.2,30.30,North,0,0.0,0.0,38,0.00,,---,0.00,VWS V13.01,2013-04-02 06:58:00,
2013-04-02 02:04:00,29.3,6.9,30.30,North,0,0.0,0.0,38,0.00,,---,0.00,VWS V13.01,2013-04-02 07:04:00,
2013-04-02 02:09:00,29.3,6.9,30.30,North,0,0.0,0.0,38,0.00,,---,0.00,VWS V13.01,2013-04-02 07:09:00,
2013-04-02 02:14:00,29.3,6.9,30.30,North,0,0.0,0.0,38,0.00,,---,0.00,VWS V13.01,2013-04-02 07:14:00,
2013-04-02 02:19:00,29.1,6.7,30.30,North,0,0.0,0.0,38,0.00,,---,0.00,VWS V13.01,2013-04-02 07:19:00,
2013-04-02 02:25:00,29.1,6.7,30.30,North,0,0.0,0.0,38,0.00,,---,0.00,VWS V13.01,2013-04-02 07:25:00,
2013-04-02 02:30:00,28.8,6.4,30.30,North,0,0.0,0.0,38,0.00,,---,0.00,VWS V13.01,2013-04-02 07:30:00,
2013-04-02 02:35:00,28.8,6.4,30.30,North,0,0.0,0.0,38,0.00,,---,0.00,VWS V13.01,2013-04-02 07:35:00,
2013-04-02 02:40:00,28.8,6.4,30.30,North,0,0.0,0.0,38,0.00,,---,0.00,VWS V13.01,2013-04-02 07:40:00,
2013-04-02 02:45:00,28.6,6.2,30.30,North,0,0.0,0.0,38,0.00,,---,0.00,VWS V13.01,2013-04-02 07:45:00,
2013-04-02 02:51:00,28.6,6.2,30.30,North,0,0.0,0.0,38,0.00,,---,0.00,VWS V13.01,2013-04-02 07:51:00,
2013-04-02 02:57:00,28.6,6.2,30.30,North,0,0.0,0.0,38,0.00,,---,0.00,VWS V13.01,2013-04-02 07:57:00,
2013-04-02 03:03:00,28.6,6.2,30.30,North,0,0.0,0.0,38,0.00,,---,0.00,VWS V13.01,2013-04-02 08:03:00,
2013-04-02 03:09:00,28.6,6.2,30.30,North,0,0.0,0.0,38,0.00,,---,0.00,VWS V13.01,2013-04-02 08:09:00,
2013-04-02 03:14:00,28.2,6.4,30.30,North,0,0.0,0.0,39,0.00,,---,0.00,VWS V13.01,2013-04-02 08:14:00,
2013-04-02 03:20:00,28.2,6.4,30.30,North,0,0.0,0.0,39,0.00,,---,0.00,VWS V13.01,2013-04-02 08:20:00,
2013-04-02 03:25:00,28.0,6.3,30.30,North,0,0.0,0.0,39,0.00,,---,0.00,VWS V13.01,2013-04-02 08:25:00,
2013-04-02 03:31:00,28.0,6.3,30.30,North,0,0.0,0.0,39,0.00,,---,0.00,VWS V13.01,2013-04-02 08:31:00,
2013-04-02 03:36:00,28.0,6.3,30.30,North,0,0.0,0.0,39,0.00,,---,0.00,VWS V13.01,2013-04-02 08:36:00,
2013-04-02 03:42:00,27.9,6.1,30.30,North,0,0.0,0.0,39,0.00,,---,0.00,VWS V13.01,2013-04-02 08:42:00,
2013-04-02 03:48:00,27.9,6.1,30.30,North,0,0.0,0.0,39,0.00,,---,0.00,VWS V13.01,2013-04-02 08:48:00,
2013-04-02 03:54:00,27.9,6.1,30.30,North,0,0.0,0.0,39,0.00,,---,0.00,VWS V13.01,2013-04-02 08:54:00,
2013-04-02 03:59:00,27.9,6.1,30.30,North,0,0.0,0.0,39,0.00,,---,0.00,VWS V13.01,2013-04-02 08:59:00,
2013-04-02 04:05:00,27.7,6.0,30.30,North,0,0.0,0.0,39,0.00,,---,0.00,VWS V13.01,2013-04-02 09:05:00,
2013-04-02 04:10:00,27.5,5.8,30.30,North,0,0.0,0.0,39,0.00,,---,0.00,VWS V13.01,2013-04-02 09:10:00,
2013-04-02 04:15:00,27.5,5.8,30.30,North,0,0.0,0.0,39,0.00,,---,0.00,VWS V13.01,2013-04-02 09:15:00,
2013-04-02 04:20:00,27.5,5.8,30.30,North,0,0.0,0.0,39,0.00,,---,0.00,VWS V13.01,2013-04-02 09:20:00,
2013-04-02 04:26:00,27.5,5.8,30.30,North,0,0.0,0.0,39,0.00,,---,0.00,VWS V13.01,2013-04-02 09:26:00,
2013-04-02 04:32:00,27.5,5.8,30.30,North,0,0.0,0.0,39,0.00,,---,0.00,VWS V13.01,2013-04-02 09:32:00,
2013-04-02 04:37:00,27.5,5.8,30.30,North,0,0.0,0.0,39,0.00,,---,0.00,VWS V13.01,2013-04-02 09:37:00,
2013-04-02 04:42:00,27.5,5.8,30.30,North,0,0.0,0.0,39,0.00,,---,0.00,VWS V13.01,2013-04-02 09:42:00,
2013-04-02 04:48:00,27.0,5.3,30.30,North,0,0.0,0.0,39,0.00,,---,0.00,VWS V13.01,2013-04-02 09:48:00,
2013-04-02 04:53:00,27.0,5.3,30.30,North,0,0.0,0.0,39,0.00,,---,0.00,VWS V13.01,2013-04-02 09:53:00,
2013-04-02 04:58:00,27.0,5.3,30.30,North,0,0.0,0.0,39,0.00,,---,0.00,VWS V13.01,2013-04-02 09:58:00,
2013-04-02 05:03:00,27.0,5.3,30.30,North,0,0.0,0.0,39,0.00,,---,0.00,VWS V13.01,2013-04-02 10:03:00,
2013-04-02 05:08:00,27.0,5.3,30.30,North,0,0.0,0.0,39,0.00,,---,0.00,VWS V13.01,2013-04-02 10:08:00,
2013-04-02 05:14:00,26.8,5.2,30.30,North,0,0.0,0.0,39,0.00,,---,0.00,VWS V13.01,2013-04-02 10:14:00,
2013-04-02 05:19:00,26.8,5.2,30.30,North,0,0.0,0.0,39,0.00,,---,0.00,VWS V13.01,2013-04-02 10:19:00,
2013-04-02 05:24:00,26.6,5.0,30.30,North,0,0.0,0.0,39,0.00,,---,0.00,VWS V13.01,2013-04-02 10:24:00,
2013-04-02 05:29:00,26.6,5.0,30.30,North,0,0.0,0.0,39,0.00,,---,0.00,VWS V13.01,2013-04-02 10:29:00,
2013-04-02 05:34:00,26.6,5.0,30.33,North,0,0.0,0.0,39,0.00,,---,0.00,VWS V13.01,2013-04-02 10:34:00,
2013-04-02 05:40:00,26.6,5.0,30.33,North,0,0.0,0.0,39,0.00,,---,0.00,VWS V13.01,2013-04-02 10:40:00,
2013-04-02 05:45:00,26.6,5.0,30.33,North,0,0.0,0.0,39,0.00,,---,0.00,VWS V13.01,2013-04-02 10:45:00,
2013-04-02 05:50:00,26.6,5.0,30.33,North,0,0.0,0.0,39,0.00,,---,0.00,VWS V13.01,2013-04-02 10:50:00,
2013-04-02 05:55:00,26.6,5.0,30.33,North,0,0.0,0.0,39,0.00,,---,0.00,VWS V13.01,2013-04-02 10:55:00,
2013-04-02 06:01:00,26.2,4.7,30.33,North,0,0.0,0.0,39,0.00,,---,0.00,VWS V13.01,2013-04-02 11:01:00,
2013-04-02 06:07:00,26.2,4.7,30.33,North,0,0.0,0.0,39,0.00,,---,0.00,VWS V13.01,2013-04-02 11:07:00,
2013-04-02 06:12:00,26.2,4.7,30.33,North,0,0.0,0.0,39,0.00,,---,0.00,VWS V13.01,2013-04-02 11:12:00,
2013-04-02 06:17:00,26.2,4.7,30.33,North,0,0.0,0.0,39,0.00,,---,0.00,VWS V13.01,2013-04-02 11:17:00,
2013-04-02 06:22:00,26.2,5.2,30.33,North,0,0.0,0.0,40,0.00,,---,0.00,VWS V13.01,2013-04-02 11:22:00,
2013-04-02 06:28:00,26.2,5.2,30.33,North,0,0.0,0.0,40,0.00,,---,0.00,VWS V13.01,2013-04-02 11:28:00,
2013-04-02 06:33:00,26.2,5.2,30.33,North,0,0.0,0.0,40,0.00,,---,0.00,VWS V13.01,2013-04-02 11:33:00,
2013-04-02 06:38:00,26.1,5.1,30.33,North,0,0.0,0.0,40,0.00,,---,0.00,VWS V13.01,2013-04-02 11:38:00,
2013-04-02 06:43:00,26.1,5.1,30.33,North,0,0.0,0.0,40,0.00,,---,0.00,VWS V13.01,2013-04-02 11:43:00,
2013-04-02 06:49:00,26.1,5.1,30.33,North,0,0.0,0.0,40,0.00,,---,0.00,VWS V13.01,2013-04-02 11:49:00,
2013-04-02 06:54:00,26.1,5.1,30.33,North,0,0.0,0.0,40,0.00,,---,0.00,VWS V13.01,2013-04-02 11:54:00,
2013-04-02 06:59:00,26.1,5.1,30.33,North,0,0.0,0.0,40,0.00,,---,0.00,VWS V13.01,2013-04-02 11:59:00,
2013-04-02 07:04:00,26.1,5.1,30.33,North,0,0.0,0.0,40,0.00,,---,0.00,VWS V13.01,2013-04-02 12:04:00,
2013-04-02 07:09:00,25.9,4.9,30.33,North,0,0.0,0.0,40,0.00,,---,0.00,VWS V13.01,2013-04-02 12:09:00,
2013-04-02 07:15:00,25.9,4.9,30.33,North,0,0.0,0.0,40,0.00,,---,0.00,VWS V13.01,2013-04-02 12:15:00,
2013-04-02 07:20:00,25.9,4.9,30.33,North,0,0.0,0.0,40,0.00,,---,0.00,VWS V13.01,2013-04-02 12:20:00,
2013-04-02 07:25:00,25.9,4.9,30.33,North,0,0.0,0.0,40,0.00,,---,0.00,VWS V13.01,2013-04-02 12:25:00,
2013-04-02 07:30:00,25.9,4.9,30.36,North,0,0.0,0.0,40,0.00,,---,0.00,VWS V13.01,2013-04-02 12:30:00,
2013-04-02 07:35:00,25.7,4.7,30.36,North,0,0.0,0.0,40,0.00,,---,0.00,VWS V13.01,2013-04-02 12:35:00,
2013-04-02 07:41:00,25.7,4.7,30.36,North,0,0.0,0.0,40,0.00,,---,0.00,VWS V13.01,2013-04-02 12:41:00,
2013-04-02 07:46:00,25.7,4.7,30.36,North,0,0.0,0.0,40,0.00,,---,0.00,VWS V13.01,2013-04-02 12:46:00,
2013-04-02 07:51:00,25.7,4.7,30.36,North,0,0.0,0.0,40,0.00,,---,0.00,VWS V13.01,2013-04-02 12:51:00,
2013-04-02 07:57:00,25.7,4.7,30.36,North,0,0.0,0.0,40,0.00,,---,0.00,VWS V13.01,2013-04-02 12:57:00,
2013-04-02 08:03:00,25.7,4.7,30.36,North,0,0.0,0.0,40,0.00,,---,0.00,VWS V13.01,2013-04-02 13:03:00,
2013-04-02 08:09:00,25.7,4.7,30.36,North,0,0.0,0.0,40,0.00,,---,0.00,VWS V13.01,2013-04-02 13:09:00,
2013-04-02 08:15:00,25.7,4.7,30.36,North,0,0.0,0.0,40,0.00,,---,0.00,VWS V13.01,2013-04-02 13:15:00,
2013-04-02 08:21:00,25.7,4.7,30.36,North,0,0.0,0.0,40,0.00,,---,0.00,VWS V13.01,2013-04-02 13:21:00,
2013-04-02 08:26:00,25.7,5.3,30.36,North,0,0.0,0.0,41,0.00,,---,0.00,VWS V13.01,2013-04-02 13:26:00,
2013-04-02 08:32:00,25.7,5.3,30.36,North,0,0.0,0.0,41,0.00,,---,0.00,VWS V13.01,2013-04-02 13:32:00,
2013-04-02 08:38:00,25.7,5.3,30.36,North,0,0.0,0.0,41,0.00,,---,0.00,VWS V13.01,2013-04-02 13:38:00,
2013-04-02 08:43:00,26.1,5.6,30.39,North,0,0.0,0.0,41,0.00,,---,0.00,VWS V13.01,2013-04-02 13:43:00,
2013-04-02 08:48:00,26.1,5.6,30.39,North,0,0.0,0.0,41,0.00,,---,0.00,VWS V13.01,2013-04-02 13:48:00,
2013-04-02 08:53:00,26.1,5.6,30.39,North,0,0.0,0.0,41,0.00,,---,0.00,VWS V13.01,2013-04-02 13:53:00,
2013-04-02 08:58:00,26.1,5.6,30.39,North,0,0.0,0.0,41,0.00,,---,0.00,VWS V13.01,2013-04-02 13:58:00,
2013-04-02 09:03:00,26.4,5.9,30.39,North,0,0.0,0.0,41,0.00,,---,0.00,VWS V13.01,2013-04-02 14:03:00,
2013-04-02 09:09:00,26.4,5.9,30.39,North,0,0.0,0.0,41,0.00,,---,0.00,VWS V13.01,2013-04-02 14:09:00,
2013-04-02 09:14:00,26.4,5.9,30.39,North,0,0.0,0.0,41,0.00,,---,0.00,VWS V13.01,2013-04-02 14:14:00,
2013-04-02 09:19:00,26.4,5.9,30.39,North,0,0.0,0.0,41,0.00,,---,0.00,VWS V13.01,2013-04-02 14:19:00,
2013-04-02 09:24:00,26.4,5.9,30.39,North,0,0.0,0.0,41,0.00,,---,0.00,VWS V13.01,2013-04-02 14:24:00,
2013-04-02 09:30:00,27.1,6.6,30.39,North,0,0.0,0.0,41,0.00,,---,0.00,VWS V13.01,2013-04-02 14:30:00,
2013-04-02 09:36:00,27.1,6.6,30.39,North,0,0.0,0.0,41,0.00,,---,0.00,VWS V13.01,2013-04-02 14:36:00,
2013-04-02 09:41:00,27.5,6.9,30.39,North,0,0.0,0.0,41,0.00,,---,0.00,VWS V13.01,2013-04-02 14:41:00,
2013-04-02 09:46:00,27.5,6.9,30.39,North,0,0.0,0.0,41,0.00,,---,0.00,VWS V13.01,2013-04-02 14:46:00,
2013-04-02 09:52:00,28.0,7.4,30.36,North,0,0.0,0.0,41,0.00,,---,0.00,VWS V13.01,2013-04-02 14:52:00,
2013-04-02 09:57:00,28.0,7.4,30.36,North,0,0.0,0.0,41,0.00,,---,0.00,VWS V13.01,2013-04-02 14:57:00,
2013-04-02 10:02:00,28.0,7.4,30.36,North,0,0.0,0.0,41,0.00,,---,0.00,VWS V13.01,2013-04-02 15:02:00,
2013-04-02 10:08:00,28.0,7.4,30.36,North,0,0.0,0.0,41,0.00,,---,0.00,VWS V13.01,2013-04-02 15:08:00,
2013-04-02 10:14:00,29.1,8.4,30.39,North,0,0.0,0.0,41,0.00,,---,0.00,VWS V13.01,2013-04-02 15:14:00,
2013-04-02 10:20:00,29.3,8.5,30.39,North,0,0.0,0.0,41,0.00,,---,0.00,VWS V13.01,2013-04-02 15:20:00,
2013-04-02 10:26:00,29.3,8.5,30.39,North,0,0.0,0.0,41,0.00,,---,0.00,VWS V13.01,2013-04-02 15:26:00,
2013-04-02 10:32:00,29.3,8.5,30.39,North,0,0.0,0.0,41,0.00,,---,0.00,VWS V13.01,2013-04-02 15:32:00,
2013-04-02 10:37:00,29.3,8.5,30.36,North,0,0.0,0.0,41,0.00,,---,0.00,VWS V13.01,2013-04-02 15:37:00,
2013-04-02 10:43:00,30.6,9.7,30.36,North,0,0.0,0.0,41,0.00,,---,0.00,VWS V13.01,2013-04-02 15:43:00,
2013-04-02 10:48:00,30.6,9.7,30.36,North,0,0.0,0.0,41,0.00,,---,0.00,VWS V13.01,2013-04-02 15:48:00,
2013-04-02 10:54:00,31.5,10.5,30.36,North,0,0.0,0.0,41,0.00,,---,0.00,VWS V13.01,2013-04-02 15:54:00,
2013-04-02 11:00:00,31.5,10.5,30.36,North,0,0.0,0.0,41,0.00,,---,0.00,VWS V13.01,2013-04-02 16:00:00,
2013-04-02 11:06:00,32.0,11.0,30.36,North,0,0.0,0.0,41,0.00,,---,0.00,VWS V13.01,2013-04-02 16:06:00,
2013-04-02 11:12:00,32.0,11.0,30.36,North,0,0.0,0.0,41,0.00,,---,0.00,VWS V13.01,2013-04-02 16:12:00,
2013-04-02 11:17:00,32.0,11.0,30.36,North,0,0.0,0.0,41,0.00,,---,0.00,VWS V13.01,2013-04-02 16:17:00,
2013-04-02 11:23:00,32.0,11.0,30.36,North,0,0.0,0.0,41,0.00,,---,0.00,VWS V13.01,2013-04-02 16:23:00,
2013-04-02 11:29:00,33.3,12.1,30.36,North,0,0.0,0.0,41,0.00,,---,0.00,VWS V13.01,2013-04-02 16:29:00,
2013-04-02 11:34:00,33.6,12.4,30.36,North,0,0.0,0.0,41,0.00,,---,0.00,VWS V13.01,2013-04-02 16:34:00,
2013-04-02 11:39:00,33.6,12.4,30.36,North,0,0.0,0.0,41,0.00,,---,0.00,VWS V13.01,2013-04-02 16:39:00,
2013-04-02 11:44:00,33.6,12.4,30.36,North,0,0.0,0.0,41,0.00,,---,0.00,VWS V13.01,2013-04-02 16:44:00,
2013-04-02 11:50:00,34.5,13.3,30.36,North,0,0.0,0.0,41,0.00,,---,0.00,VWS V13.01,2013-04-02 16:50:00,
2013-04-02 11:56:00,34.5,13.3,30.36,North,0,0.0,0.0,41,0.00,,---,0.00,VWS V13.01,2013-04-02 16:56:00,
2013-04-02 12:01:00,34.5,13.3,30.36,North,0,0.0,0.0,41,0.00,,---,0.00,VWS V13.01,2013-04-02 17:01:00,
2013-04-02 12:06:00,34.5,13.3,30.36,North,0,0.0,0.0,41,0.00,,---,0.00,VWS V13.01,2013-04-02 17:06:00,
2013-04-02 12:12:00,36.0,14.6,30.36,North,0,0.0,0.0,41,0.00,,---,0.00,VWS V13.01,2013-04-02 17:12:00,
2013-04-02 12:17:00,36.0,14.6,30.36,North,0,0.0,0.0,41,0.00,,---,0.00,VWS V13.01,2013-04-02 17:17:00,
2013-04-02 12:22:00,36.0,14.6,30.36,North,0,0.0,0.0,41,0.00,,---,0.00,VWS V13.01,2013-04-02 17:22:00,
2013-04-02 12:28:00,36.0,14.6,30.36,North,0,0.0,0.0,41,0.00,,---,0.00,VWS V13.01,2013-04-02 17:28:00,
2013-04-02 12:34:00,36.0,14.6,30.36,North,0,0.0,0.0,41,0.00,,---,0.00,VWS V13.01,2013-04-02 17:34:00,
2013-04-02 12:40:00,37.0,15.5,30.36,North,0,0.0,0.0,41,0.00,,---,0.00,VWS V13.01,2013-04-02 17:40:00,
2013-04-02 12:46:00,37.0,15.5,30.36,North,0,0.0,0.0,41,0.00,,---,0.00,VWS V13.01,2013-04-02 17:46:00,
2013-04-02 12:51:00,37.0,15.5,30.36,North,0,0.0,0.0,41,0.00,,---,0.00,VWS V13.01,2013-04-02 17:51:00,
2013-04-02 12:57:00,37.0,15.5,30.36,North,0,0.0,0.0,41,0.00,,---,0.00,VWS V13.01,2013-04-02 17:57:00,
2013-04-02 13:02:00,38.1,16.5,30.36,North,0,0.0,0.0,41,0.00,,---,0.00,VWS V13.01,2013-04-02 18:02:00,
2013-04-02 13:07:00,38.1,16.5,30.36,North,0,0.0,0.0,41,0.00,,---,0.00,VWS V13.01,2013-04-02 18:07:00,
2013-04-02 13:13:00,38.1,16.5,30.36,North,0,0.0,0.0,41,0.00,,---,0.00,VWS V13.01,2013-04-02 18:13:00,
2013-04-02 13:19:00,38.1,16.5,30.36,North,0,0.0,0.0,41,0.00,,---,0.00,VWS V13.01,2013-04-02 18:19:00,
2013-04-02 13:24:00,39.0,17.3,30.36,North,0,0.0,0.0,41,0.00,,---,0.00,VWS V13.01,2013-04-02 18:24:00,
2013-04-02 13:30:00,39.0,17.3,30.36,North,0,0.0,0.0,41,0.00,,---,0.00,VWS V13.01,2013-04-02 18:30:00,
2013-04-02 13:36:00,39.0,17.3,30.36,North,0,0.0,0.0,41,0.00,,---,0.00,VWS V13.01,2013-04-02 18:36:00,
2013-04-02 13:42:00,39.7,17.4,30.36,North,0,0.0,0.0,40,0.00,,---,0.00,VWS V13.01,2013-04-02 18:42:00,
2013-04-02 13:47:00,39.9,17.6,30.36,North,0,0.0,0.0,40,0.00,,---,0.00,VWS V13.01,2013-04-02 18:47:00,
2013-04-02 13:53:00,39.9,17.6,30.36,North,0,0.0,0.0,40,0.00,,---,0.00,VWS V13.01,2013-04-02 18:53:00,
2013-04-02 13:59:00,39.9,17.6,30.36,North,0,0.0,0.0,40,0.00,,---,0.00,VWS V13.01,2013-04-02 18:59:00,
2013-04-02 14:04:00,39.9,17.6,30.36,North,0,0.0,0.0,40,0.00,,---,0.00,VWS V13.01,2013-04-02 19:04:00,
2013-04-02 14:09:00,40.8,18.4,30.36,North,0,0.0,0.0,40,0.00,,---,0.00,VWS V13.01,2013-04-02 19:09:00,
2013-04-02 14:15:00,40.8,18.4,30.36,North,0,0.0,0.0,40,0.00,,---,0.00,VWS V13.01,2013-04-02 19:15:00,
2013-04-02 14:21:00,40.8,18.4,30.36,North,0,0.0,0.0,40,0.00,,---,0.00,VWS V13.01,2013-04-02 19:21:00,
2013-04-02 14:28:00,40.8,18.4,30.36,North,0,0.0,0.0,40,0.00,,---,0.00,VWS V13.01,2013-04-02 19:28:00,
2013-04-02 14:33:00,41.5,19.0,30.33,North,0,0.0,0.0,40,0.00,,---,0.00,VWS V13.01,2013-04-02 19:33:00,
2013-04-02 14:39:00,41.5,19.0,30.33,North,0,0.0,0.0,40,0.00,,---,0.00,VWS V13.01,2013-04-02 19:39:00,
2013-04-02 14:45:00,41.5,19.0,30.33,North,0,0.0,0.0,40,0.00,,---,0.00,VWS V13.01,2013-04-02 19:45:00,
2013-04-02 14:50:00,42.1,19.5,30.33,North,0,0.0,0.0,40,0.00,,---,0.00,VWS V13.01,2013-04-02 19:50:00,
2013-04-02 14:55:00,42.1,19.5,30.33,North,0,0.0,0.0,40,0.00,,---,0.00,VWS V13.01,2013-04-02 19:55:00,
2013-04-02 15:01:00,42.3,19.7,30.33,North,0,0.0,0.0,40,0.00,,---,0.00,VWS V13.01,2013-04-02 20:01:00,
2013-04-02 15:06:00,42.3,19.7,30.33,North,0,0.0,0.0,40,0.00,,---,0.00,VWS V13.01,2013-04-02 20:06:00,
2013-04-02 15:12:00,42.4,19.2,30.33,North,0,0.0,0.0,39,0.00,,---,0.00,VWS V13.01,2013-04-02 20:12:00,
2013-04-02 15:18:00,42.6,19.4,30.33,North,0,0.0,0.0,39,0.00,,---,0.00,VWS V13.01,2013-04-02 20:18:00,
2013-04-02 15:23:00,42.8,19.6,30.33,North,0,0.0,0.0,39,0.00,,---,0.00,VWS V13.01,2013-04-02 20:23:00,
2013-04-02 15:29:00,42.8,19.6,30.33,North,0,0.0,0.0,39,0.00,,---,0.00,VWS V13.01,2013-04-02 20:29:00,
2013-04-02 15:34:00,42.8,19.6,30.33,North,0,0.0,0.0,39,0.00,,---,0.00,VWS V13.01,2013-04-02 20:34:00,
2013-04-02 15:39:00,43.0,19.7,30.33,North,0,0.0,0.0,39,0.00,,---,0.00,VWS V13.01,2013-04-02 20:39:00,
2013-04-02 15:45:00,43.2,19.9,30.33,North,0,0.0,0.0,39,0.00,,---,0.00,VWS V13.01,2013-04-02 20:45:00,
2013-04-02 15:51:00,43.3,20.1,30.33,North,0,0.0,0.0,39,0.00,,---,0.00,VWS V13.01,2013-04-02 20:51:00,
2013-04-02 15:58:00,43.5,20.2,30.33,North,0,0.0,0.0,39,0.00,,---,0.00,VWS V13.01,2013-04-02 20:58:00,
2013-04-02 16:03:00,43.5,20.2,30.33,North,0,0.0,0.0,39,0.00,,---,0.00,VWS V13.01,2013-04-02 21:03:00,
2013-04-02 16:08:00,43.5,20.2,30.33,North,0,0.0,0.0,39,0.00,,---,0.00,VWS V13.01,2013-04-02 21:08:00,
2013-04-02 16:14:00,43.7,20.4,30.33,North,0,0.0,0.0,39,0.00,,---,0.00,VWS V13.01,2013-04-02 21:14:00,
2013-04-02 16:19:00,43.7,20.4,30.33,North,0,0.0,0.0,39,0.00,,---,0.00,VWS V13.01,2013-04-02 21:19:00,
2013-04-02 16:25:00,43.7,20.4,30.33,North,0,0.0,0.0,39,0.00,,---,0.00,VWS V13.01,2013-04-02 21:25:00,
2013-04-02 16:31:00,43.9,20.5,30.33,North,0,0.0,0.0,39,0.00,,---,0.00,VWS V13.01,2013-04-02 21:31:00,
2013-04-02 16:36:00,44.1,20.7,30.33,North,0,0.0,0.0,39,0.00,,---,0.00,VWS V13.01,2013-04-02 21:36:00,
2013-04-02 16:41:00,44.1,20.7,30.33,North,0,0.0,0.0,39,0.00,,---,0.00,VWS V13.01,2013-04-02 21:41:00,
2013-04-02 16:47:00,44.1,20.7,30.33,North,0,0.0,0.0,39,0.00,,---,0.00,VWS V13.01,2013-04-02 21:47:00,
2013-04-02 16:52:00,44.1,20.7,30.33,North,0,0.0,0.0,39,0.00,,---,0.00,VWS V13.01,2013-04-02 21:52:00,
2013-04-02 16:58:00,44.1,20.7,30.33,North,0,0.0,0.0,39,0.00,,---,0.00,VWS V13.01,2013-04-02 21:58:00,
2013-04-02 17:04:00,44.1,20.7,30.33,North,0,0.0,0.0,39,0.00,,---,0.00,VWS V13.01,2013-04-02 22:04:00,
2013-04-02 17:09:00,44.1,20.7,30.33,North,0,0.0,0.0,39,0.00,,---,0.00,VWS V13.01,2013-04-02 22:09:00,
2013-04-02 17:15:00,44.1,20.7,30.33,North,0,0.0,0.0,39,0.00,,---,0.00,VWS V13.01,2013-04-02 22:15:00,
2013-04-02 17:22:00,44.1,20.7,30.33,North,0,0.0,0.0,39,0.00,,---,0.00,VWS V13.01,2013-04-02 22:22:00,
2013-04-02 17:27:00,44.1,20.7,30.33,North,0,0.0,0.0,39,0.00,,---,0.00,VWS V13.01,2013-04-02 22:27:00,
2013-04-02 17:33:00,44.1,20.7,30.33,North,0,0.0,0.0,39,0.00,,---,0.00,VWS V13.01,2013-04-02 22:33:00,
2013-04-02 17:38:00,44.1,20.7,30.33,North,0,0.0,0.0,39,0.00,,---,0.00,VWS V13.01,2013-04-02 22:38:00,
2013-04-02 17:44:00,44.1,20.7,30.33,North,0,0.0,0.0,39,0.00,,---,0.00,VWS V13.01,2013-04-02 22:44:00,
2013-04-02 17:50:00,44.1,20.7,30.33,North,0,0.0,0.0,39,0.00,,---,0.00,VWS V13.01,2013-04-02 22:50:00,
2013-04-02 17:55:00,44.1,20.7,30.33,North,0,0.0,0.0,39,0.00,,---,0.00,VWS V13.01,2013-04-02 22:55:00,
2013-04-02 18:02:00,43.9,20.5,30.33,North,0,0.0,0.0,39,0.00,,---,0.00,VWS V13.01,2013-04-02 23:02:00,
2013-04-02 18:08:00,43.9,20.5,30.33,North,0,0.0,0.0,39,0.00,,---,0.00,VWS V13.01,2013-04-02 23:08:00,
2013-04-02 18:14:00,43.9,20.5,30.33,North,0,0.0,0.0,39,0.00,,---,0.00,VWS V13.01,2013-04-02 23:14:00,
2013-04-02 18:19:00,43.7,20.4,30.33,North,0,0.0,0.0,39,0.00,,---,0.00,VWS V13.01,2013-04-02 23:19:00,
2013-04-02 18:24:00,43.7,20.4,30.33,North,0,0.0,0.0,39,0.00,,---,0.00,VWS V13.01,2013-04-02 23:24:00,
2013-04-02 18:30:00,43.5,19.6,30.33,North,0,0.0,0.0,38,0.00,,---,0.00,VWS V13.01,2013-04-02 23:30:00,
2013-04-02 18:35:00,43.5,19.6,30.33,North,0,0.0,0.0,38,0.00,,---,0.00,VWS V13.01,2013-04-02 23:35:00,
2013-04-02 18:40:00,43.3,19.5,30.33,North,0,0.0,0.0,38,0.00,,---,0.00,VWS V13.01,2013-04-02 23:40:00,
2013-04-02 18:45:00,43.3,19.5,30.33,North,0,0.0,0.0,38,0.00,,---,0.00,VWS V13.01,2013-04-02 23:45:00,
2013-04-02 18:50:00,43.0,19.1,30.36,North,0,0.0,0.0,38,0.00,,---,0.00,VWS V13.01,2013-04-02 23:50:00,
2013-04-02 18:56:00,43.0,19.1,30.36,North,0,0.0,0.0,38,0.00,,---,0.00,VWS V13.01,2013-04-02 23:56:00,
2013-04-02 19:01:00,43.0,19.1,30.36,North,0,0.0,0.0,38,0.00,,---,0.00,VWS V13.01,2013-04-03 00:01:00,
2013-04-02 19:06:00,43.0,19.1,30.36,North,0,0.0,0.0,38,0.00,,---,0.00,VWS V13.01,2013-04-03 00:06:00,
2013-04-02 19:12:00,42.6,19.4,30.36,North,0,0.0,0.0,39,0.00,,---,0.00,VWS V13.01,2013-04-03 00:12:00,
2013-04-02 19:18:00,42.4,19.2,30.36,North,0,0.0,0.0,39,0.00,,---,0.00,VWS V13.01,2013-04-03 00:18:00,
2013-04-02 19:23:00,42.1,18.9,30.36,North,0,0.0,0.0,39,0.00,,---,0.00,VWS V13.01,2013-04-03 00:23:00,
2013-04-02 19:29:00,41.9,18.8,30.36,North,0,0.0,0.0,39,0.00,,---,0.00,VWS V13.01,2013-04-03 00:29:00,
2013-04-02 19:34:00,41.7,18.6,30.36,North,0,0.0,0.0,39,0.00,,---,0.00,VWS V13.01,2013-04-03 00:34:00,
2013-04-02 19:40:00,41.5,17.8,30.36,North,0,0.0,0.0,38,0.00,,---,0.00,VWS V13.01,2013-04-03 00:40:00,
2013-04-02 19:45:00,41.5,17.8,30.36,North,0,0.0,0.0,38,0.00,,---,0.00,VWS V13.01,2013-04-03 00:45:00,
2013-04-02 19:51:00,41.5,17.8,30.36,North,0,0.0,0.0,38,0.00,,---,0.00,VWS V13.01,2013-04-03 00:51:00,
2013-04-02 19:56:00,41.5,17.8,30.36,North,0,0.0,0.0,38,0.00,,---,0.00,VWS V13.01,2013-04-03 00:56:00,
2013-04-02 20:01:00,40.6,17.6,30.36,North,0,0.0,0.0,39,0.00,,---,0.00,VWS V13.01,2013-04-03 01:01:00,
2013-04-02 20:07:00,40.3,17.3,30.36,North,0,0.0,0.0,39,0.00,,---,0.00,VWS V13.01,2013-04-03 01:07:00,
2013-04-02 20:12:00,40.3,17.3,30.36,North,0,0.0,0.0,39,0.00,,---,0.00,VWS V13.01,2013-04-03 01:12:00,
2013-04-02 20:17:00,40.3,17.3,30.36,North,0,0.0,0.0,39,0.00,,---,0.00,VWS V13.01,2013-04-03 01:17:00,
2013-04-02 20:23:00,40.3,17.3,30.36,North,0,0.0,0.0,39,0.00,,---,0.00,VWS V13.01,2013-04-03 01:23:00,
2013-04-02 20:29:00,39.6,16.7,30.36,North,0,0.0,0.0,39,0.00,,---,0.00,VWS V13.01,2013-04-03 01:29:00,
2013-04-02 20:34:00,39.6,16.7,30.36,North,0,0.0,0.0,39,0.00,,---,0.00,VWS V13.01,2013-04-03 01:34:00,
2013-04-02 20:39:00,39.0,16.2,30.36,North,0,0.0,0.0,39,0.00,,---,0.00,VWS V13.01,2013-04-03 01:39:00,
2013-04-02 20:45:00,38.7,15.9,30.36,North,0,0.0,0.0,39,0.00,,---,0.00,VWS V13.01,2013-04-03 01:45:00,
2013-04-02 20:51:00,38.5,15.7,30.36,North,0,0.0,0.0,39,0.00,,---,0.00,VWS V13.01,2013-04-03 01:51:00,
2013-04-02 20:56:00,38.1,15.4,30.36,North,0,0.0,0.0,39,0.00,,---,0.00,VWS V13.01,2013-04-03 01:56:00,
2013-04-02 21:02:00,38.1,15.4,30.36,North,0,0.0,0.0,39,0.00,,---,0.00,VWS V13.01,2013-04-03 02:02:00,
2013-04-02 21:07:00,38.1,15.4,30.36,North,0,0.0,0.0,39,0.00,,---,0.00,VWS V13.01,2013-04-03 02:07:00,
2013-04-02 21:13:00,37.4,14.1,30.36,North,0,0.0,0.0,38,0.00,,---,0.00,VWS V13.01,2013-04-03 02:13:00,
2013-04-02 21:18:00,37.2,14.6,30.36,North,0,0.0,0.0,39,0.00,,---,0.00,VWS V13.01,2013-04-03 02:18:00,
2013-04-02 21:23:00,37.0,13.8,30.36,North,0,0.0,0.0,38,0.00,,---,0.00,VWS V13.01,2013-04-03 02:23:00,
2013-04-02 21:28:00,37.0,13.8,30.36,North,0,0.0,0.0,38,0.00,,---,0.00,VWS V13.01,2013-04-03 02:28:00,
2013-04-02 21:33:00,36.5,13.3,30.39,North,0,0.0,0.0,38,0.00,,---,0.00,VWS V13.01,2013-04-03 02:33:00,
2013-04-02 21:39:00,36.5,13.3,30.39,North,0,0.0,0.0,38,0.00,,---,0.00,VWS V13.01,2013-04-03 02:39:00,
2013-04-02 21:45:00,36.5,13.3,30.39,North,0,0.0,0.0,38,0.00,,---,0.00,VWS V13.01,2013-04-03 02:45:00,
2013-04-02 21:50:00,36.5,13.3,30.39,North,0,0.0,0.0,38,0.00,,---,0.00,VWS V13.01,2013-04-03 02:50:00,
2013-04-02 21:55:00,35.8,12.7,30.39,North,0,0.0,0.0,38,0.00,,---,0.00,VWS V13.01,2013-04-03 02:55:00,
2013-04-02 22:01:00,35.6,12.5,30.39,North,0,0.0,0.0,38,0.00,,---,0.00,VWS V13.01,2013-04-03 03:01:00,
2013-04-02 22:06:00,35.4,12.4,30.39,North,0,0.0,0.0,38,0.00,,---,0.00,VWS V13.01,2013-04-03 03:06:00,
2013-04-02 22:11:00,35.4,12.4,30.39,North,0,0.0,0.0,38,0.00,,---,0.00,VWS V13.01,2013-04-03 03:11:00,
2013-04-02 22:17:00,35.4,12.4,30.39,North,0,0.0,0.0,38,0.00,,---,0.00,VWS V13.01,2013-04-03 03:17:00,
2013-04-02 22:23:00,34.9,11.9,30.39,North,0,0.0,0.0,38,0.00,,---,0.00,VWS V13.01,2013-04-03 03:23:00,
2013-04-02 22:29:00,34.5,11.5,30.39,North,0,0.0,0.0,38,0.00,,---,0.00,VWS V13.01,2013-04-03 03:29:00,
2013-04-02 22:34:00,34.5,11.5,30.39,North,0,0.0,0.0,38,0.00,,---,0.00,VWS V13.01,2013-04-03 03:34:00,
2013-04-02 22:40:00,34.3,10.8,30.39,North,0,0.0,0.0,37,0.00,,---,0.00,VWS V13.01,2013-04-03 03:40:00,
2013-04-02 22:45:00,34.2,10.6,30.39,North,0,0.0,0.0,37,0.00,,---,0.00,VWS V13.01,2013-04-03 03:45:00,
2013-04-02 22:51:00,34.2,10.6,30.39,North,0,0.0,0.0,37,0.00,,---,0.00,VWS V13.01,2013-04-03 03:51:00,
2013-04-02 22:57:00,34.2,10.6,30.39,North,0,0.0,0.0,37,0.00,,---,0.00,VWS V13.01,2013-04-03 03:57:00,
2013-04-02 23:00:00,33.8,10.3,30.39,North,0,0.0,0.0,37,0.00,,---,0.00,VWS V13.01,2013-04-03 04:00:00,
2013-04-02 23:01:00,33.8,10.3,30.39,North,0,0.0,0.0,37,0.00,,---,0.00,VWS V13.01,2013-04-03 04:01:00,
2013-04-02 23:03:00,33.8,10.3,30.39,North,0,0.0,0.0,37,0.00,,---,0.00,VWS V13.01,2013-04-03 04:03:00,
2013-04-02 23:06:00,33.6,10.7,30.39,North,0,0.0,0.0,38,0.00,,---,0.00,VWS V13.01,2013-04-03 04:06:00,
2013-04-02 23:11:00,33.4,10.6,30.39,North,0,0.0,0.0,38,0.00,,---,0.00,VWS V13.01,2013-04-03 04:11:00,
2013-04-02 23:17:00,33.3,10.4,30.39,North,0,0.0,0.0,38,0.00,,---,0.00,VWS V13.01,2013-04-03 04:17:00,
2013-04-02 23:22:00,33.3,10.4,30.39,North,0,0.0,0.0,38,0.00,,---,0.00,VWS V13.01,2013-04-03 04:22:00,
2013-04-02 23:27:00,33.3,10.4,30.39,North,0,0.0,0.0,38,0.00,,---,0.00,VWS V13.01,2013-04-03 04:27:00,
2013-04-02 23:32:00,32.9,9.5,30.39,North,0,0.0,0.0,37,0.00,,---,0.00,VWS V13.01,2013-04-03 04:32:00,
2013-04-02 23:38:00,32.9,9.5,30.39,North,0,0.0,0.0,37,0.00,,---,0.00,VWS V13.01,2013-04-03 04:38:00,
2013-04-02 23:44:00,32.7,9.3,30.39,North,0,0.0,0.0,37,0.00,,---,0.00,VWS V13.01,2013-04-03 04:44:00,
2013-04-02 23:49:00,32.5,9.2,30.39,North,0,0.0,0.0,37,0.00,,---,0.00,VWS V13.01,2013-04-03 04:49:00,
2013-04-02 23:54:00,32.5,9.2,30.39,North,0,0.0,0.0,37,0.00,,---,0.00,VWS V13.01,2013-04-03 04:54:00,